Terminal Aerodrome Forecast
Issued by NWS

Home | Current Version | Previous Version | Text Only | Print | Product List | Glossary On
Versions: 1 2 3 4 5 6 7 8 9 10 11 12
000
FTUS45 KGGW 290520
TAFSDY
TAF
KSDY 290520Z 2906/3006 21006KT 1/2SM FG OVC001
     FM291500 20010KT P6SM BKN070
     FM300100 23007KT P6SM SCT210
     FM300400 22004KT P6SM BKN100=

USA.gov is the U.S. government's official web portal to all federal, state and local government web resources and services.